Time;durP1;ratioP1;P1;durP2;ratioP2;P2;SDS_P1;SDS_P2;PMS_P1;PMS_P2;Temp;Humidity;BMP_temperature;BMP_pressure;BME280_temperature;BME280_humidity;BME280_pressure;Samples;Min_cycle;Max_cycle;Signal;HPM_P1;HPM_P2
2023/06/13 00:01:03;;;;;;;;;;;17.30;58.70;;;;;;6135154;23;19920;-86
2023/06/13 00:03:29;;;;;;;;;;;17.20;59.00;;;;;;6132762;23;20335;-86
2023/06/13 00:05:55;;;;;;;;;;;17.20;59.00;;;;;;6134867;23;19964;-87
2023/06/13 00:08:21;;;;;;;;;;;17.10;59.20;;;;;;6101379;23;19924;-86
2023/06/13 00:10:47;;;;;;;;;;;17.00;59.20;;;;;;6110408;23;20340;-86
2023/06/13 00:13:14;;;;;;;;;;;17.00;59.30;;;;;;6133302;23;19971;-86
2023/06/13 00:15:46;;;;;;;;;;;17.00;59.50;;;;;;6134769;23;19920;-85
2023/06/13 00:18:12;;;;;;;;;;;16.90;59.50;;;;;;6127259;23;19959;-86
2023/06/13 00:20:38;;;;;;;;;;;16.90;59.60;;;;;;6110233;23;20332;-86
2023/06/13 00:23:04;;;;;;;;;;;16.80;59.50;;;;;;6109043;23;19951;-86
2023/06/13 00:25:29;;;;;;;;;;;16.80;59.70;;;;;;6134615;23;19947;-86
2023/06/13 00:27:55;;;;;;;;;;;16.80;59.80;;;;;;6126382;23;20738;-85
2023/06/13 00:30:20;;;;;;;;;;;16.70;60.00;;;;;;6110391;23;19924;-85
2023/06/13 00:32:46;;;;;;;;;;;16.60;59.90;;;;;;6132541;23;19928;-85
2023/06/13 00:35:12;;;;;;;;;;;16.60;59.80;;;;;;6134858;23;19932;-85
2023/06/13 00:37:38;;;;;;;;;;;16.60;59.90;;;;;;6120284;23;19987;-85
2023/06/13 00:40:05;;;;;;;;;;;16.60;60.00;;;;;;6156888;23;19955;-86
2023/06/13 00:42:31;;;;;;;;;;;16.50;59.90;;;;;;6133067;23;19960;-85
2023/06/13 00:45:17;;;;;;;;;;;16.50;59.70;;;;;;6133925;23;20389;-85
2023/06/13 00:47:43;;;;;;;;;;;16.50;59.70;;;;;;6122684;23;19920;-85
2023/06/13 00:50:09;;;;;;;;;;;16.50;59.80;;;;;;6133989;23;19920;-86
2023/06/13 00:52:35;;;;;;;;;;;16.50;59.90;;;;;;6133009;23;20350;-85
2023/06/13 00:55:02;;;;;;;;;;;16.40;59.90;;;;;;6134460;23;19975;-86
2023/06/13 00:57:28;;;;;;;;;;;16.40;59.90;;;;;;6125901;23;19987;-86
2023/06/13 00:59:54;;;;;;;;;;;16.40;60.10;;;;;;6134821;23;19948;-85
2023/06/13 01:02:20;;;;;;;;;;;16.40;60.00;;;;;;6157508;23;19979;-85
2023/06/13 01:04:47;;;;;;;;;;;16.30;60.10;;;;;;6134040;23;19920;-85
2023/06/13 01:07:14;;;;;;;;;;;16.30;59.90;;;;;;6119514;23;20270;-85
2023/06/13 01:09:40;;;;;;;;;;;16.30;60.10;;;;;;6134133;23;19996;-85
2023/06/13 01:12:13;;;;;;;;;;;16.20;60.00;;;;;;6132555;23;19968;-85
2023/06/13 01:14:42;;;;;;;;;;;16.20;60.10;;;;;;6133614;23;20342;-86
2023/06/13 01:17:12;;;;;;;;;;;16.20;60.20;;;;;;6118586;23;19920;-85
2023/06/13 01:19:41;;;;;;;;;;;16.10;60.30;;;;;;6133839;23;19960;-85
2023/06/13 01:22:16;;;;;;;;;;;16.10;60.20;;;;;;6156853;23;20053;-85
2023/06/13 01:24:52;;;;;;;;;;;16.00;60.20;;;;;;6134000;23;19995;-86
2023/06/13 01:27:18;;;;;;;;;;;16.00;60.30;;;;;;6126141;23;20324;-85
2023/06/13 01:29:44;;;;;;;;;;;16.00;60.10;;;;;;6133862;23;19928;-86
2023/06/13 01:32:11;;;;;;;;;;;16.00;60.40;;;;;;6132135;23;20251;-86
2023/06/13 01:34:39;;;;;;;;;;;15.90;60.20;;;;;;6134152;23;19995;-85
2023/06/13 01:37:05;;;;;;;;;;;15.80;60.30;;;;;;6128156;23;19916;-86
2023/06/13 01:39:33;;;;;;;;;;;15.80;60.20;;;;;;6133761;23;19959;-85
2023/06/13 01:41:58;;;;;;;;;;;15.80;60.50;;;;;;6134120;23;19955;-85
2023/06/13 01:44:24;;;;;;;;;;;15.80;60.40;;;;;;6132422;23;19927;-86
2023/06/13 01:46:49;;;;;;;;;;;15.80;60.40;;;;;;6126643;23;20428;-85
2023/06/13 01:49:26;;;;;;;;;;;15.70;60.70;;;;;;6156691;23;19974;-85
2023/06/13 01:52:10;;;;;;;;;;;15.60;60.50;;;;;;6133923;23;19924;-86
2023/06/13 01:54:40;;;;;;;;;;;15.60;60.70;;;;;;6132933;23;19940;-86
2023/06/13 01:57:07;;;;;;;;;;;15.60;60.90;;;;;;6148718;23;19916;-87
2023/06/13 01:59:33;;;;;;;;;;;15.50;61.00;;;;;;6133834;23;19943;-85
2023/06/13 02:02:00;;;;;;;;;;;15.50;61.30;;;;;;6134055;23;19920;-85
2023/06/13 02:04:26;;;;;;;;;;;15.50;61.40;;;;;;6131530;23;19920;-86
2023/06/13 02:06:51;;;;;;;;;;;15.40;61.40;;;;;;6103013;23;19978;-87
2023/06/13 02:09:17;;;;;;;;;;;15.30;61.30;;;;;;6107852;23;19924;-86
2023/06/13 02:11:42;;;;;;;;;;;15.30;61.40;;;;;;6133911;23;19956;-86
2023/06/13 02:14:08;;;;;;;;;;;15.20;61.80;;;;;;6131668;23;19928;-86
2023/06/13 02:16:34;;;;;;;;;;;15.00;61.90;;;;;;6128595;23;19923;-86
2023/06/13 02:19:00;;;;;;;;;;;15.00;62.00;;;;;;6106147;23;19920;-85
2023/06/13 02:21:27;;;;;;;;;;;14.90;62.00;;;;;;6133727;23;19928;-85
2023/06/13 02:23:53;;;;;;;;;;;14.80;62.00;;;;;;6131841;23;20287;-85
2023/06/13 02:26:19;;;;;;;;;;;14.80;62.20;;;;;;6131887;23;19920;-86
2023/06/13 02:28:45;;;;;;;;;;;14.70;62.10;;;;;;6128195;23;19927;-86
2023/06/13 02:31:11;;;;;;;;;;;14.70;62.10;;;;;;6158323;23;19924;-86
2023/06/13 02:33:38;;;;;;;;;;;14.70;62.20;;;;;;6107495;23;20225;-86
2023/06/13 02:36:09;;;;;;;;;;;14.60;62.60;;;;;;6133311;23;19924;-86
2023/06/13 02:38:36;;;;;;;;;;;14.60;62.20;;;;;;6103572;23;19920;-86
2023/06/13 02:41:03;;;;;;;;;;;14.60;62.20;;;;;;6133563;23;20323;-86
2023/06/13 02:43:28;;;;;;;;;;;14.60;62.10;;;;;;6132110;23;20252;-85
2023/06/13 02:45:54;;;;;;;;;;;14.60;62.00;;;;;;6109023;23;19920;-86
2023/06/13 02:48:22;;;;;;;;;;;14.60;62.00;;;;;;6125093;23;20414;-85
2023/06/13 02:50:48;;;;;;;;;;;14.60;61.90;;;;;;6133720;23;19921;-85
2023/06/13 02:53:14;;;;;;;;;;;14.60;61.70;;;;;;6156133;23;20287;-86
2023/06/13 02:55:46;;;;;;;;;;;14.60;61.70;;;;;;6109398;23;19921;-86
2023/06/13 02:58:12;;;;;;;;;;;14.60;61.60;;;;;;6102820;23;19928;-85
2023/06/13 03:00:38;;;;;;;;;;;14.60;61.70;;;;;;6133696;23;20275;-85
2023/06/13 03:03:04;;;;;;;;;;;14.60;61.70;;;;;;6132116;23;19924;-86
2023/06/13 03:05:30;;;;;;;;;;;14.50;61.80;;;;;;6133035;23;19920;-85
2023/06/13 03:07:58;;;;;;;;;;;14.50;61.60;;;;;;6101865;23;19920;-86
2023/06/13 03:10:24;;;;;;;;;;;14.50;61.80;;;;;;6133128;23;19920;-86
2023/06/13 03:12:50;;;;;;;;;;;14.50;61.80;;;;;;6131711;23;19943;-85
2023/06/13 03:15:17;;;;;;;;;;;14.40;61.60;;;;;;6108987;23;19920;-86
2023/06/13 03:17:42;;;;;;;;;;;14.40;61.80;;;;;;6125062;23;19999;-85
2023/06/13 03:20:09;;;;;;;;;;;14.30;61.90;;;;;;6133766;23;20311;-85
2023/06/13 03:22:35;;;;;;;;;;;14.30;62.20;;;;;;6155933;23;19920;-86
2023/06/13 03:25:04;;;;;;;;;;;14.20;61.90;;;;;;6133515;23;20015;-85
2023/06/13 03:27:31;;;;;;;;;;;14.20;61.80;;;;;;6126507;23;19967;-85
2023/06/13 03:29:57;;;;;;;;;;;14.20;61.80;;;;;;6134596;23;19928;-86
2023/06/13 03:32:23;;;;;;;;;;;14.20;61.90;;;;;;6133861;23;19925;-86
2023/06/13 03:34:50;;;;;;;;;;;14.20;61.70;;;;;;6110873;23;19931;-85
2023/06/13 03:37:15;;;;;;;;;;;14.20;61.60;;;;;;6129825;23;19928;-86
2023/06/13 03:39:41;;;;;;;;;;;14.20;61.80;;;;;;6111202;23;19920;-86
2023/06/13 03:42:07;;;;;;;;;;;14.20;61.60;;;;;;6133432;23;19926;-86
2023/06/13 03:44:33;;;;;;;;;;;14.20;61.50;;;;;;6135206;23;19999;-86
2023/06/13 03:46:58;;;;;;;;;;;14.30;61.60;;;;;;6129469;23;19928;-86
2023/06/13 03:49:24;;;;;;;;;;;14.30;61.60;;;;;;6133109;23;19931;-86
2023/06/13 03:51:50;;;;;;;;;;;14.30;61.60;;;;;;6135031;23;19920;-86
2023/06/13 03:54:16;;;;;;;;;;;14.30;61.60;;;;;;6133465;23;20393;-86
2023/06/13 03:56:42;;;;;;;;;;;14.30;61.70;;;;;;6129568;23;19916;-85
2023/06/13 03:59:07;;;;;;;;;;;14.30;61.30;;;;;;6131686;23;19924;-87
2023/06/13 04:01:33;;;;;;;;;;;14.40;61.00;;;;;;6135124;23;19920;-86
2023/06/13 04:03:59;;;;;;;;;;;14.40;61.50;;;;;;6109393;23;20243;-86
2023/06/13 04:06:28;;;;;;;;;;;14.40;61.10;;;;;;6103387;23;20316;-89
2023/06/13 04:08:54;;;;;;;;;;;14.40;61.00;;;;;;6129471;23;20283;-86
2023/06/13 04:11:20;;;;;;;;;;;14.40;61.10;;;;;;6133618;23;20051;-86
2023/06/13 04:13:45;;;;;;;;;;;14.50;61.30;;;;;;6133215;23;19956;-86
2023/06/13 04:16:11;;;;;;;;;;;14.50;61.10;;;;;;6133861;23;19960;-89
2023/06/13 04:18:39;;;;;;;;;;;14.50;61.20;;;;;;6127283;23;19927;-86
2023/06/13 04:21:05;;;;;;;;;;;14.40;61.30;;;;;;6135180;23;19996;-87
2023/06/13 04:23:30;;;;;;;;;;;14.40;61.50;;;;;;6133055;23;20288;-87
2023/06/13 04:25:57;;;;;;;;;;;14.40;61.60;;;;;;6134655;23;19991;-86
2023/06/13 04:28:24;;;;;;;;;;;14.40;61.70;;;;;;6101854;23;19955;-86
2023/06/13 04:30:51;;;;;;;;;;;14.50;62.60;;;;;;6110001;23;19978;-86
2023/06/13 04:33:17;;;;;;;;;;;14.50;62.10;;;;;;6132931;23;19928;-86
2023/06/13 04:35:48;;;;;;;;;;;14.50;61.90;;;;;;6134378;23;20323;-86
2023/06/13 04:38:14;;;;;;;;;;;14.50;62.20;;;;;;6127745;23;19928;-86
2023/06/13 04:40:40;;;;;;;;;;;14.60;62.20;;;;;;6134399;23;19956;-87
2023/06/13 04:43:06;;;;;;;;;;;14.60;62.20;;;;;;6133271;23;19920;-86
2023/06/13 04:45:32;;;;;;;;;;;14.60;62.50;;;;;;6109795;23;19968;-86
2023/06/13 04:48:01;;;;;;;;;;;14.70;62.50;;;;;;6125296;23;19951;-86
2023/06/13 04:50:27;;;;;;;;;;;14.70;62.80;;;;;;6110465;23;19927;-86
2023/06/13 04:52:53;;;;;;;;;;;14.70;63.20;;;;;;6133112;23;19928;-86
2023/06/13 04:55:21;;;;;;;;;;;14.70;63.40;;;;;;6134149;23;19920;-86
2023/06/13 04:57:47;;;;;;;;;;;14.80;63.30;;;;;;6125118;23;20332;-85
2023/06/13 05:00:15;;;;;;;;;;;14.90;63.70;;;;;;6133168;23;19960;-87
2023/06/13 05:02:41;;;;;;;;;;;15.00;64.40;;;;;;6133047;23;19995;-86
2023/06/13 05:05:07;;;;;;;;;;;15.30;64.60;;;;;;6134095;23;19924;-86
2023/06/13 05:07:34;;;;;;;;;;;15.60;64.30;;;;;;6125372;23;19931;-86
2023/06/13 05:10:02;;;;;;;;;;;15.80;63.80;;;;;;6134274;23;19927;-86
2023/06/13 05:12:28;;;;;;;;;;;16.00;63.40;;;;;;6132502;23;19974;-87
2023/06/13 05:14:54;;;;;;;;;;;16.30;62.50;;;;;;6133739;23;19952;-86
2023/06/13 05:17:20;;;;;;;;;;;16.60;62.20;;;;;;6148140;23;20348;-86
2023/06/13 05:19:46;;;;;;;;;;;16.90;62.20;;;;;;6134105;23;19927;-86
2023/06/13 05:22:12;;;;;;;;;;;17.10;61.70;;;;;;6132327;23;19930;-86
2023/06/13 05:24:37;;;;;;;;;;;17.40;61.30;;;;;;6133877;23;19991;-87
2023/06/13 05:27:03;;;;;;;;;;;17.60;60.80;;;;;;6123921;23;19916;-87
2023/06/13 05:29:29;;;;;;;;;;;17.90;59.90;;;;;;6109198;23;19920;-86
2023/06/13 05:31:57;;;;;;;;;;;18.10;59.30;;;;;;6109021;23;19952;-86
2023/06/13 05:34:23;;;;;;;;;;;18.20;59.10;;;;;;6132063;23;19952;-87
2023/06/13 05:36:48;;;;;;;;;;;18.40;58.60;;;;;;6125315;23;19944;-85
2023/06/13 05:39:15;;;;;;;;;;;18.70;58.60;;;;;;6109446;23;19920;-85
2023/06/13 05:41:41;;;;;;;;;;;18.80;57.60;;;;;;6109978;23;19931;-86
2023/06/13 05:44:06;;;;;;;;;;;19.00;57.50;;;;;;6131534;23;19999;-86
2023/06/13 05:46:32;;;;;;;;;;;19.20;57.80;;;;;;6128391;23;20594;-89
2023/06/13 05:48:58;;;;;;;;;;;19.20;56.70;;;;;;6129914;23;19921;-86
2023/06/13 05:51:24;;;;;;;;;;;19.20;56.60;;;;;;6133698;23;19971;-87
2023/06/13 05:53:50;;;;;;;;;;;19.20;56.80;;;;;;6132319;23;19984;-85
2023/06/13 05:56:16;;;;;;;;;;;19.10;56.60;;;;;;6131157;23;20013;-89
2023/06/13 05:58:43;;;;;;;;;;;19.10;56.40;;;;;;6102297;23;19933;-86
2023/06/13 06:01:10;;;;;;;;;;;19.20;57.70;;;;;;6133286;23;19975;-86
2023/06/13 06:03:36;;;;;;;;;;;19.30;56.30;;;;;;6108243;23;20018;-86
2023/06/13 06:06:02;;;;;;;;;;;19.30;56.60;;;;;;6109473;23;19924;-87
2023/06/13 06:08:28;;;;;;;;;;;19.40;56.20;;;;;;6100073;23;19927;-86
2023/06/13 06:10:54;;;;;;;;;;;19.40;55.70;;;;;;6133691;23;19920;-86
2023/06/13 06:13:19;;;;;;;;;;;19.50;55.20;;;;;;6107627;23;19920;-86
2023/06/13 06:15:45;;;;;;;;;;;19.60;55.10;;;;;;6133431;23;19927;-86
2023/06/13 06:18:11;;;;;;;;;;;19.60;55.20;;;;;;6121069;23;19947;-86
2023/06/13 06:20:36;;;;;;;;;;;19.70;54.00;;;;;;6133526;23;20340;-86
2023/06/13 06:23:02;;;;;;;;;;;19.70;54.30;;;;;;6132160;23;19921;-85
2023/06/13 06:25:27;;;;;;;;;;;19.70;54.50;;;;;;6109196;23;19920;-87
2023/06/13 06:27:55;;;;;;;;;;;19.80;54.60;;;;;;6093992;23;19924;-86
2023/06/13 06:30:20;;;;;;;;;;;19.90;54.10;;;;;;6109653;23;19920;-87
2023/06/13 06:32:47;;;;;;;;;;;19.90;54.80;;;;;;6131504;23;19975;-87
2023/06/13 06:35:14;;;;;;;;;;;20.00;55.30;;;;;;6133546;23;19924;-87
2023/06/13 06:37:40;;;;;;;;;;;20.10;55.80;;;;;;6127451;23;20379;-86
2023/06/13 06:40:06;;;;;;;;;;;20.10;54.80;;;;;;6133722;23;19920;-88
2023/06/13 06:42:32;;;;;;;;;;;20.20;54.70;;;;;;6132226;23;20327;-88
2023/06/13 06:44:57;;;;;;;;;;;20.20;54.50;;;;;;6133888;23;19943;-87
2023/06/13 06:47:23;;;;;;;;;;;20.30;54.60;;;;;;6124311;23;19928;-87
2023/06/13 06:49:49;;;;;;;;;;;20.30;53.40;;;;;;6133846;23;20244;-86
2023/06/13 06:52:15;;;;;;;;;;;20.30;52.90;;;;;;6131720;23;19983;-86
2023/06/13 06:54:40;;;;;;;;;;;20.30;52.80;;;;;;6109457;23;19928;-86
2023/06/13 06:57:06;;;;;;;;;;;20.30;53.10;;;;;;6095962;23;20002;-87
2023/06/13 06:59:32;;;;;;;;;;;20.30;52.50;;;;;;6133525;23;19920;-87
2023/06/13 07:01:57;;;;;;;;;;;20.30;53.60;;;;;;6133483;23;19916;-86
2023/06/13 07:04:23;;;;;;;;;;;20.40;52.70;;;;;;6132533;23;19943;-88
2023/06/13 07:06:49;;;;;;;;;;;20.50;52.50;;;;;;6098480;23;19921;-86
2023/06/13 07:09:14;;;;;;;;;;;20.50;52.00;;;;;;6157954;23;19982;-89
2023/06/13 07:11:40;;;;;;;;;;;20.60;53.30;;;;;;6135102;23;19924;-88
2023/06/13 07:14:06;;;;;;;;;;;20.70;52.10;;;;;;6133145;23;19948;-87
2023/06/13 07:16:32;;;;;;;;;;;20.80;53.80;;;;;;6128184;23;20196;-90
2023/06/13 07:18:58;;;;;;;;;;;20.90;53.00;;;;;;6130950;23;19944;-87
2023/06/13 07:21:23;;;;;;;;;;;20.90;52.10;;;;;;6135302;23;19921;-88
2023/06/13 07:23:49;;;;;;;;;;;20.90;53.50;;;;;;6133760;23;19920;-87
2023/06/13 07:26:15;;;;;;;;;;;21.00;53.30;;;;;;6129298;23;19920;-89
2023/06/13 07:28:41;;;;;;;;;;;21.10;53.70;;;;;;6104094;23;19925;-88
2023/06/13 07:31:09;;;;;;;;;;;21.10;52.60;;;;;;6135902;23;19920;-87
2023/06/13 07:33:35;;;;;;;;;;;21.10;53.30;;;;;;6109098;23;19943;-89
2023/06/13 07:36:01;;;;;;;;;;;21.10;52.90;;;;;;6135009;23;20406;-87
2023/06/13 07:38:27;;;;;;;;;;;21.10;52.70;;;;;;6104492;23;19966;-87
2023/06/13 07:40:52;;;;;;;;;;;21.10;52.30;;;;;;6134933;23;19927;-86
2023/06/13 07:43:18;;;;;;;;;;;21.10;52.50;;;;;;6132819;23;19952;-87
2023/06/13 07:45:46;;;;;;;;;;;21.10;52.80;;;;;;6135539;23;19930;-86
2023/06/13 07:48:11;;;;;;;;;;;21.30;52.60;;;;;;6126736;23;19982;-85
2023/06/13 07:50:38;;;;;;;;;;;21.30;51.20;;;;;;6135125;23;19920;-86
2023/06/13 07:53:03;;;;;;;;;;;21.40;51.20;;;;;;6133031;23;19920;-86
2023/06/13 07:55:29;;;;;;;;;;;21.40;49.90;;;;;;6110688;23;19927;-86
2023/06/13 07:57:55;;;;;;;;;;;21.30;50.00;;;;;;6126091;23;20355;-87
2023/06/13 08:00:20;;;;;;;;;;;21.40;51.20;;;;;;6135209;23;19932;-86
2023/06/13 08:02:46;;;;;;;;;;;21.50;52.00;;;;;;6133698;23;19920;-87
2023/06/13 08:05:12;;;;;;;;;;;21.50;51.70;;;;;;6135241;23;20006;-86
2023/06/13 08:07:38;;;;;;;;;;;21.50;50.80;;;;;;6125878;23;19924;-86
2023/06/13 08:10:04;;;;;;;;;;;21.60;51.60;;;;;;6110309;23;19920;-87
2023/06/13 08:12:30;;;;;;;;;;;21.60;51.40;;;;;;6108425;23;19943;-86
2023/06/13 08:14:56;;;;;;;;;;;21.70;52.50;;;;;;6133772;23;19920;-87
2023/06/13 08:17:21;;;;;;;;;;;21.90;51.20;;;;;;6126424;23;19952;-89
2023/06/13 08:19:48;;;;;;;;;;;21.90;50.90;;;;;;6134819;23;19921;-87
2023/06/13 08:22:14;;;;;;;;;;;22.00;51.50;;;;;;6132720;23;19927;-86
2023/06/13 08:24:40;;;;;;;;;;;22.10;51.40;;;;;;6134664;23;20505;-86
2023/06/13 08:27:14;;;;;;;;;;;22.20;51.20;;;;;;6125179;23;19921;-87
2023/06/13 08:29:41;;;;;;;;;;;22.20;50.30;;;;;;6134353;23;20324;-86
2023/06/13 08:32:07;;;;;;;;;;;22.30;50.40;;;;;;6108739;23;19920;-87
2023/06/13 08:34:33;;;;;;;;;;;22.30;50.50;;;;;;6110103;23;19991;-87
2023/06/13 08:36:59;;;;;;;;;;;22.20;50.30;;;;;;6104410;23;19920;-90
2023/06/13 08:39:24;;;;;;;;;;;22.30;50.40;;;;;;6110106;23;19927;-87
2023/06/13 08:41:50;;;;;;;;;;;22.30;50.10;;;;;;6135019;23;20351;-86
2023/06/13 08:44:17;;;;;;;;;;;22.40;49.80;;;;;;6108615;23;19920;-86
2023/06/13 08:46:42;;;;;;;;;;;22.50;50.50;;;;;;6130414;23;19916;-88
2023/06/13 08:49:08;;;;;;;;;;;22.50;49.80;;;;;;6131456;23;19970;-86
2023/06/13 08:51:35;;;;;;;;;;;22.60;49.50;;;;;;6134149;23;19943;-87
2023/06/13 08:54:03;;;;;;;;;;;22.70;48.70;;;;;;6131789;23;20336;-87
2023/06/13 08:56:32;;;;;;;;;;;22.70;48.70;;;;;;6122437;23;20474;-87
2023/06/13 08:59:03;;;;;;;;;;;22.80;48.60;;;;;;6116918;23;19943;-87
2023/06/13 09:01:29;;;;;;;;;;;22.80;49.10;;;;;;6134276;23;19999;-87
2023/06/13 09:03:56;;;;;;;;;;;22.90;47.70;;;;;;6108412;23;19955;-87
2023/06/13 09:06:21;;;;;;;;;;;22.90;48.50;;;;;;6124862;23;19990;-90
2023/06/13 09:08:47;;;;;;;;;;;23.00;47.80;;;;;;6128578;23;20263;-87
2023/06/13 09:11:14;;;;;;;;;;;23.00;48.40;;;;;;6109716;23;19928;-86
2023/06/13 09:13:40;;;;;;;;;;;23.00;48.70;;;;;;6156814;23;19920;-86
2023/06/13 09:16:06;;;;;;;;;;;23.00;48.60;;;;;;6105740;23;19927;-89
2023/06/13 09:18:36;;;;;;;;;;;23.00;48.90;;;;;;6097814;23;19920;-87
2023/06/13 09:21:02;;;;;;;;;;;23.00;49.10;;;;;;6133864;23;19920;-86
2023/06/13 09:23:28;;;;;;;;;;;23.10;48.80;;;;;;6132324;23;20002;-87
2023/06/13 09:25:54;;;;;;;;;;;23.20;48.70;;;;;;6133592;23;19927;-87
2023/06/13 09:28:30;;;;;;;;;;;23.20;47.70;;;;;;6125423;23;20232;-87
2023/06/13 09:30:58;;;;;;;;;;;23.10;48.40;;;;;;6133816;23;19920;-86
2023/06/13 09:33:24;;;;;;;;;;;23.10;48.30;;;;;;6132503;23;19920;-87
2023/06/13 09:35:50;;;;;;;;;;;23.10;49.70;;;;;;6133628;23;19920;-87
2023/06/13 09:38:21;;;;;;;;;;;23.10;49.00;;;;;;6126811;23;20347;-89
2023/06/13 09:40:46;;;;;;;;;;;23.10;47.90;;;;;;6134076;23;19920;-88
2023/06/13 09:43:15;;;;;;;;;;;23.10;48.00;;;;;;6132472;23;19924;-87
2023/06/13 09:45:44;;;;;;;;;;;23.20;47.40;;;;;;6134339;23;19931;-87
2023/06/13 09:48:10;;;;;;;;;;;23.20;48.60;;;;;;6097827;23;19920;-88
2023/06/13 09:50:37;;;;;;;;;;;23.20;49.80;;;;;;6133789;23;19920;-87
2023/06/13 09:53:04;;;;;;;;;;;23.20;49.90;;;;;;6131535;23;19920;-87
2023/06/13 09:55:30;;;;;;;;;;;23.10;49.90;;;;;;6133973;23;19921;-87
2023/06/13 09:57:56;;;;;;;;;;;23.10;48.10;;;;;;6121067;23;19931;-87
2023/06/13 10:00:22;;;;;;;;;;;23.10;49.20;;;;;;6109307;23;19943;-87
2023/06/13 10:02:48;;;;;;;;;;;23.10;50.00;;;;;;6132344;23;19924;-89
2023/06/13 10:05:14;;;;;;;;;;;23.10;49.10;;;;;;6133844;23;20393;-87
2023/06/13 10:07:39;;;;;;;;;;;23.00;47.50;;;;;;6094995;23;19920;-87
2023/06/13 10:10:06;;;;;;;;;;;23.10;47.50;;;;;;6133936;23;20362;-88
2023/06/13 10:12:32;;;;;;;;;;;23.10;50.30;;;;;;6131506;23;19955;-87
2023/06/13 10:15:00;;;;;;;;;;;23.10;51.40;;;;;;6133603;23;20327;-88
2023/06/13 10:17:28;;;;;;;;;;;23.20;52.00;;;;;;6125446;23;19920;-87
2023/06/13 10:19:58;;;;;;;;;;;23.20;52.70;;;;;;6133657;23;19920;-87
2023/06/13 10:22:26;;;;;;;;;;;23.20;53.10;;;;;;6131696;23;23167;-88
2023/06/13 10:24:52;;;;;;;;;;;23.10;53.40;;;;;;6158355;23;20246;-87
2023/06/13 10:27:19;;;;;;;;;;;23.10;54.40;;;;;;6123841;23;19995;-86
2023/06/13 10:30:03;;;;;;;;;;;23.00;53.70;;;;;;6133678;23;19920;-88
2023/06/13 10:33:04;;;;;;;;;;;23.00;52.20;;;;;;6156109;23;20340;-89
2023/06/13 10:35:30;;;;;;;;;;;23.00;53.00;;;;;;6102962;23;19924;-87
2023/06/13 10:38:15;;;;;;;;;;;22.90;53.20;;;;;;6120232;23;19922;-87
2023/06/13 10:40:50;;;;;;;;;;;22.90;54.20;;;;;;6158368;23;19955;-87
2023/06/13 10:43:22;;;;;;;;;;;23.10;55.40;;;;;;6132046;23;19920;-87
2023/06/13 10:45:48;;;;;;;;;;;23.00;53.60;;;;;;6134090;23;19999;-87
2023/06/13 10:48:14;;;;;;;;;;;22.90;54.40;;;;;;6126091;23;19952;-87
2023/06/13 10:50:41;;;;;;;;;;;22.90;54.10;;;;;;6133687;23;19920;-87
2023/06/13 10:53:25;;;;;;;;;;;22.90;55.10;;;;;;6131631;23;20414;-89
2023/06/13 10:55:57;;;;;;;;;;;22.90;55.80;;;;;;6158538;23;19924;-87
2023/06/13 10:58:25;;;;;;;;;;;22.90;53.00;;;;;;6125510;23;20254;-86
2023/06/13 11:00:51;;;;;;;;;;;22.80;54.60;;;;;;6133691;23;19924;-87
2023/06/13 11:03:16;;;;;;;;;;;22.80;54.30;;;;;;6132016;23;20279;-88
2023/06/13 11:05:45;;;;;;;;;;;22.80;54.30;;;;;;6134471;23;19921;-87
2023/06/13 11:08:14;;;;;;;;;;;22.80;54.20;;;;;;6125011;23;20064;-89
2023/06/13 11:10:41;;;;;;;;;;;22.80;53.70;;;;;;6133539;23;20298;-88
2023/06/13 11:13:21;;;;;;;;;;;22.70;53.70;;;;;;6131827;23;19920;-89
2023/06/13 11:15:47;;;;;;;;;;;22.60;53.30;;;;;;6132831;23;19995;-87
2023/06/13 11:18:14;;;;;;;;;;;22.60;54.00;;;;;;6099072;23;19934;-87
2023/06/13 11:20:49;;;;;;;;;;;22.50;53.90;;;;;;6133432;23;19920;-86
2023/06/13 11:23:18;;;;;;;;;;;22.50;54.10;;;;;;6131320;23;20278;-88
2023/06/13 11:25:48;;;;;;;;;;;22.50;55.50;;;;;;6133112;23;19921;-87
2023/06/13 11:28:14;;;;;;;;;;;22.70;55.10;;;;;;6124603;23;19987;-87
2023/06/13 11:30:44;;;;;;;;;;;22.70;54.40;;;;;;6133473;23;20339;-88
2023/06/13 11:33:11;;;;;;;;;;;22.70;55.00;;;;;;6107530;23;19970;-88
2023/06/13 11:35:38;;;;;;;;;;;22.90;54.80;;;;;;6133338;23;19927;-87
2023/06/13 11:38:09;;;;;;;;;;;22.90;54.40;;;;;;6125457;23;20039;-87
2023/06/13 11:40:47;;;;;;;;;;;22.80;54.00;;;;;;6133293;23;19924;-91
2023/06/13 11:43:13;;;;;;;;;;;22.70;54.10;;;;;;6131380;23;19931;-87
2023/06/13 11:45:40;;;;;;;;;;;22.70;54.10;;;;;;6133581;23;19920;-87
2023/06/13 11:48:06;;;;;;;;;;;22.70;54.00;;;;;;6096323;23;19970;-88
2023/06/13 11:50:32;;;;;;;;;;;22.70;53.90;;;;;;6134791;23;19924;-87
2023/06/13 11:53:02;;;;;;;;;;;22.80;53.20;;;;;;6133025;23;19927;-88
2023/06/13 11:55:27;;;;;;;;;;;22.70;54.50;;;;;;6134768;23;19920;-88
2023/06/13 11:57:55;;;;;;;;;;;22.70;53.90;;;;;;6100544;23;20419;-90
2023/06/13 12:00:25;;;;;;;;;;;22.80;53.80;;;;;;6097130;23;20299;-91
2023/06/13 12:02:55;;;;;;;;;;;22.90;54.10;;;;;;6132952;23;19928;-87
2023/06/13 12:05:21;;;;;;;;;;;22.90;53.50;;;;;;6134756;23;20336;-88
2023/06/13 12:07:48;;;;;;;;;;;22.90;54.40;;;;;;6116202;23;19931;-88
2023/06/13 12:10:15;;;;;;;;;;;22.80;53.90;;;;;;6131751;23;19925;-88
2023/06/13 12:12:41;;;;;;;;;;;22.80;54.10;;;;;;6129328;23;20341;-88
2023/06/13 12:15:13;;;;;;;;;;;22.90;53.60;;;;;;6131780;23;20320;-88
2023/06/13 12:17:59;;;;;;;;;;;22.90;53.80;;;;;;6124906;23;19920;-87
2023/06/13 12:20:28;;;;;;;;;;;22.90;53.30;;;;;;6135114;23;20397;-89
2023/06/13 12:23:01;;;;;;;;;;;22.80;54.00;;;;;;6083644;23;19920;-89
2023/06/13 12:25:28;;;;;;;;;;;22.80;53.50;;;;;;6122418;23;19920;-87
2023/06/13 12:28:01;;;;;;;;;;;22.80;54.30;;;;;;6125996;23;19920;-88
2023/06/13 12:30:29;;;;;;;;;;;22.80;54.80;;;;;;6134077;23;20382;-88
2023/06/13 12:33:14;;;;;;;;;;;22.90;55.00;;;;;;6133591;23;19920;-89
2023/06/13 12:35:52;;;;;;;;;;;23.00;54.20;;;;;;6111824;23;19995;-88
2023/06/13 12:38:19;;;;;;;;;;;22.90;53.80;;;;;;6126447;23;19927;-88
2023/06/13 12:40:51;;;;;;;;;;;22.80;54.80;;;;;;6134400;23;20408;-88
2023/06/13 12:43:22;;;;;;;;;;;22.80;55.00;;;;;;6132770;23;20324;-88
2023/06/13 12:45:47;;;;;;;;;;;22.80;54.80;;;;;;6134600;23;19928;-89
2023/06/13 12:48:17;;;;;;;;;;;22.80;55.40;;;;;;6125235;23;19924;-87
2023/06/13 12:50:43;;;;;;;;;;;22.80;55.10;;;;;;6134659;23;19920;-89
2023/06/13 12:53:09;;;;;;;;;;;22.90;55.00;;;;;;6132515;23;19931;-89
2023/06/13 12:55:35;;;;;;;;;;;22.90;54.80;;;;;;6110232;23;19925;-88
2023/06/13 12:58:01;;;;;;;;;;;22.80;55.00;;;;;;6116537;23;20228;-88
2023/06/13 13:00:27;;;;;;;;;;;22.80;55.40;;;;;;6134596;23;19920;-87
2023/06/13 13:02:53;;;;;;;;;;;22.90;54.80;;;;;;6132119;23;19921;-87
2023/06/13 13:05:18;;;;;;;;;;;22.90;54.70;;;;;;6134306;23;19920;-87
2023/06/13 13:07:46;;;;;;;;;;;22.80;55.00;;;;;;6126264;23;19927;-87
2023/06/13 13:10:11;;;;;;;;;;;22.90;54.40;;;;;;6134121;23;19925;-90
2023/06/13 13:12:38;;;;;;;;;;;22.80;55.00;;;;;;6132366;23;19920;-87
2023/06/13 13:15:04;;;;;;;;;;;22.90;54.70;;;;;;6109768;23;19979;-88
2023/06/13 13:17:29;;;;;;;;;;;23.00;54.80;;;;;;6097835;23;19975;-88
2023/06/13 13:19:56;;;;;;;;;;;23.00;54.90;;;;;;6134455;23;19920;-88
2023/06/13 13:22:22;;;;;;;;;;;23.00;54.80;;;;;;6108205;23;21456;-86
2023/06/13 13:24:53;;;;;;;;;;;22.90;55.60;;;;;;6134253;23;20006;-88
2023/06/13 13:27:19;;;;;;;;;;;23.00;54.70;;;;;;6118269;23;20224;-87
2023/06/13 13:29:45;;;;;;;;;;;23.00;54.80;;;;;;6134222;23;19943;-87
2023/06/13 13:32:13;;;;;;;;;;;23.00;54.40;;;;;;6132052;23;19980;-88
2023/06/13 13:34:38;;;;;;;;;;;23.00;54.90;;;;;;6109730;23;19927;-87
2023/06/13 13:37:04;;;;;;;;;;;23.10;55.00;;;;;;6126466;23;20086;-88
2023/06/13 13:39:32;;;;;;;;;;;23.10;54.80;;;;;;6134118;23;19920;-90
2023/06/13 13:41:58;;;;;;;;;;;23.10;55.00;;;;;;6109486;23;20328;-87
2023/06/13 13:44:24;;;;;;;;;;;23.10;54.70;;;;;;6107593;23;19971;-88
2023/06/13 13:46:50;;;;;;;;;;;23.10;55.00;;;;;;6127385;23;19920;-89
2023/06/13 13:49:16;;;;;;;;;;;23.00;54.50;;;;;;6107401;23;19920;-89
2023/06/13 13:51:41;;;;;;;;;;;23.00;55.20;;;;;;6134231;23;19976;-86
2023/06/13 13:54:13;;;;;;;;;;;23.00;54.30;;;;;;6131615;23;19924;-91
2023/06/13 13:56:39;;;;;;;;;;;23.00;54.40;;;;;;6123949;23;19923;-88
2023/06/13 13:59:05;;;;;;;;;;;23.00;54.70;;;;;;6130342;23;19920;-88
2023/06/13 14:01:30;;;;;;;;;;;23.00;55.60;;;;;;6133806;23;20569;-87
2023/06/13 14:03:56;;;;;;;;;;;23.20;55.00;;;;;;6107610;23;19927;-89
2023/06/13 14:06:22;;;;;;;;;;;23.30;54.00;;;;;;6125861;23;19959;-92
2023/06/13 14:08:50;;;;;;;;;;;23.30;54.10;;;;;;6128822;23;19998;-88
2023/06/13 14:11:17;;;;;;;;;;;23.30;54.90;;;;;;6109207;23;19920;-87
2023/06/13 14:13:43;;;;;;;;;;;23.20;54.40;;;;;;6131785;23;19920;-88
2023/06/13 14:16:08;;;;;;;;;;;23.20;54.50;;;;;;6107368;23;19975;-92